sensor_id;sensor_type;location;lat;lon;timestamp;temperature;humidity
10245;DHT22;5167;52.164;10.530;2023-04-03T00:01:31;3.80;15.70
10245;DHT22;5167;52.164;10.530;2023-04-03T00:03:56;3.70;15.60
10245;DHT22;5167;52.164;10.530;2023-04-03T00:06:23;3.70;16.30
10245;DHT22;5167;52.164;10.530;2023-04-03T00:08:49;3.70;16.20
10245;DHT22;5167;52.164;10.530;2023-04-03T00:11:16;3.70;16.30
10245;DHT22;5167;52.164;10.530;2023-04-03T00:13:42;3.60;16.20
10245;DHT22;5167;52.164;10.530;2023-04-03T00:16:09;3.60;16.80
10245;DHT22;5167;52.164;10.530;2023-04-03T00:18:35;3.50;17.00
10245;DHT22;5167;52.164;10.530;2023-04-03T00:21:01;3.50;17.40
10245;DHT22;5167;52.164;10.530;2023-04-03T00:23:27;3.40;17.70
10245;DHT22;5167;52.164;10.530;2023-04-03T00:25:53;3.40;18.10
10245;DHT22;5167;52.164;10.530;2023-04-03T00:28:19;3.30;18.30
10245;DHT22;5167;52.164;10.530;2023-04-03T00:30:44;3.30;18.60
10245;DHT22;5167;52.164;10.530;2023-04-03T00:33:13;3.40;18.60
10245;DHT22;5167;52.164;10.530;2023-04-03T00:35:39;3.30;18.40
10245;DHT22;5167;52.164;10.530;2023-04-03T00:38:05;3.40;19.50
10245;DHT22;5167;52.164;10.530;2023-04-03T00:40:35;3.30;19.80
10245;DHT22;5167;52.164;10.530;2023-04-03T00:43:01;3.30;19.10
10245;DHT22;5167;52.164;10.530;2023-04-03T00:45:37;3.30;20.00
10245;DHT22;5167;52.164;10.530;2023-04-03T00:48:06;3.30;20.40
10245;DHT22;5167;52.164;10.530;2023-04-03T00:50:36;3.40;20.00
10245;DHT22;5167;52.164;10.530;2023-04-03T00:53:04;3.40;20.00
10245;DHT22;5167;52.164;10.530;2023-04-03T00:55:30;3.40;19.90
10245;DHT22;5167;52.164;10.530;2023-04-03T00:57:57;3.40;19.60
10245;DHT22;5167;52.164;10.530;2023-04-03T01:00:24;3.40;19.30
10245;DHT22;5167;52.164;10.530;2023-04-03T01:02:50;3.30;18.90
10245;DHT22;5167;52.164;10.530;2023-04-03T01:05:17;3.40;18.50
10245;DHT22;5167;52.164;10.530;2023-04-03T01:07:45;3.30;19.40
10245;DHT22;5167;52.164;10.530;2023-04-03T01:10:12;3.30;18.80
10245;DHT22;5167;52.164;10.530;2023-04-03T01:12:41;3.20;19.30
10245;DHT22;5167;52.164;10.530;2023-04-03T01:15:19;3.30;20.10
10245;DHT22;5167;52.164;10.530;2023-04-03T01:17:48;3.30;19.90
10245;DHT22;5167;52.164;10.530;2023-04-03T01:25:48;3.20;19.70
10245;DHT22;5167;52.164;10.530;2023-04-03T01:28:21;3.30;20.60
10245;DHT22;5167;52.164;10.530;2023-04-03T01:30:51;3.20;19.50
10245;DHT22;5167;52.164;10.530;2023-04-03T01:33:19;3.10;19.90
10245;DHT22;5167;52.164;10.530;2023-04-03T01:35:45;3.10;20.20
10245;DHT22;5167;52.164;10.530;2023-04-03T01:38:10;3.10;21.10
10245;DHT22;5167;52.164;10.530;2023-04-03T01:40:36;3.00;20.00
10245;DHT22;5167;52.164;10.530;2023-04-03T01:43:01;3.10;20.70
10245;DHT22;5167;52.164;10.530;2023-04-03T01:45:27;2.90;20.70
10245;DHT22;5167;52.164;10.530;2023-04-03T01:47:52;2.90;21.30
10245;DHT22;5167;52.164;10.530;2023-04-03T01:50:18;2.80;21.00
10245;DHT22;5167;52.164;10.530;2023-04-03T01:52:43;2.80;22.20
10245;DHT22;5167;52.164;10.530;2023-04-03T01:55:09;2.80;22.10
10245;DHT22;5167;52.164;10.530;2023-04-03T01:57:34;2.80;21.80
10245;DHT22;5167;52.164;10.530;2023-04-03T02:00:00;2.70;22.30
10245;DHT22;5167;52.164;10.530;2023-04-03T02:02:25;2.70;22.00
10245;DHT22;5167;52.164;10.530;2023-04-03T02:04:51;2.70;22.80
10245;DHT22;5167;52.164;10.530;2023-04-03T02:07:16;2.60;22.30
10245;DHT22;5167;52.164;10.530;2023-04-03T02:09:42;2.70;22.60
10245;DHT22;5167;52.164;10.530;2023-04-03T02:12:07;2.70;22.70
10245;DHT22;5167;52.164;10.530;2023-04-03T02:14:33;2.50;23.10
10245;DHT22;5167;52.164;10.530;2023-04-03T02:17:00;2.60;22.80
10245;DHT22;5167;52.164;10.530;2023-04-03T02:19:26;2.50;22.80
10245;DHT22;5167;52.164;10.530;2023-04-03T02:21:51;2.50;23.20
10245;DHT22;5167;52.164;10.530;2023-04-03T02:24:17;2.40;23.40
10245;DHT22;5167;52.164;10.530;2023-04-03T02:26:42;2.40;23.30
10245;DHT22;5167;52.164;10.530;2023-04-03T02:29:08;2.30;23.90
10245;DHT22;5167;52.164;10.530;2023-04-03T02:31:33;2.30;23.60
10245;DHT22;5167;52.164;10.530;2023-04-03T02:33:59;2.30;24.40
10245;DHT22;5167;52.164;10.530;2023-04-03T02:36:24;2.30;24.20
10245;DHT22;5167;52.164;10.530;2023-04-03T02:38:49;2.30;24.30
10245;DHT22;5167;52.164;10.530;2023-04-03T02:41:15;2.30;24.30
10245;DHT22;5167;52.164;10.530;2023-04-03T02:43:41;2.30;24.30
10245;DHT22;5167;52.164;10.530;2023-04-03T02:46:06;2.50;24.20
10245;DHT22;5167;52.164;10.530;2023-04-03T02:48:32;2.30;24.20
10245;DHT22;5167;52.164;10.530;2023-04-03T02:50:57;2.30;24.20
10245;DHT22;5167;52.164;10.530;2023-04-03T02:53:23;2.20;24.10
10245;DHT22;5167;52.164;10.530;2023-04-03T02:55:49;2.20;24.10
10245;DHT22;5167;52.164;10.530;2023-04-03T02:58:14;2.30;24.10
10245;DHT22;5167;52.164;10.530;2023-04-03T03:00:40;2.30;23.80
10245;DHT22;5167;52.164;10.530;2023-04-03T03:03:06;2.30;23.90
10245;DHT22;5167;52.164;10.530;2023-04-03T03:05:32;2.30;24.00
10245;DHT22;5167;52.164;10.530;2023-04-03T03:07:57;2.30;23.40
10245;DHT22;5167;52.164;10.530;2023-04-03T03:10:23;2.30;24.20
10245;DHT22;5167;52.164;10.530;2023-04-03T03:12:48;2.30;23.10
10245;DHT22;5167;52.164;10.530;2023-04-03T03:15:14;2.30;23.80
10245;DHT22;5167;52.164;10.530;2023-04-03T03:17:41;2.30;23.30
10245;DHT22;5167;52.164;10.530;2023-04-03T03:20:07;2.30;23.50
10245;DHT22;5167;52.164;10.530;2023-04-03T03:22:35;2.30;23.30
10245;DHT22;5167;52.164;10.530;2023-04-03T03:25:01;2.30;23.10
10245;DHT22;5167;52.164;10.530;2023-04-03T03:27:27;2.30;23.10
10245;DHT22;5167;52.164;10.530;2023-04-03T03:29:53;2.20;22.80
10245;DHT22;5167;52.164;10.530;2023-04-03T03:32:18;2.20;23.70
10245;DHT22;5167;52.164;10.530;2023-04-03T03:34:44;2.10;24.00
10245;DHT22;5167;52.164;10.530;2023-04-03T03:37:10;2.20;23.50
10245;DHT22;5167;52.164;10.530;2023-04-03T03:39:35;2.10;23.60
10245;DHT22;5167;52.164;10.530;2023-04-03T03:42:00;2.10;24.00
10245;DHT22;5167;52.164;10.530;2023-04-03T03:44:26;2.00;23.70
10245;DHT22;5167;52.164;10.530;2023-04-03T03:46:54;2.10;24.30
10245;DHT22;5167;52.164;10.530;2023-04-03T03:49:20;2.10;24.10
10245;DHT22;5167;52.164;10.530;2023-04-03T03:51:45;2.00;23.70
10245;DHT22;5167;52.164;10.530;2023-04-03T03:54:11;1.90;23.50
10245;DHT22;5167;52.164;10.530;2023-04-03T03:56:36;1.90;24.20
10245;DHT22;5167;52.164;10.530;2023-04-03T03:59:02;1.80;24.10
10245;DHT22;5167;52.164;10.530;2023-04-03T04:01:28;1.90;24.30
10245;DHT22;5167;52.164;10.530;2023-04-03T04:03:53;1.90;24.30
10245;DHT22;5167;52.164;10.530;2023-04-03T04:06:22;1.90;23.90
10245;DHT22;5167;52.164;10.530;2023-04-03T04:08:47;1.90;24.20
10245;DHT22;5167;52.164;10.530;2023-04-03T04:11:13;1.90;24.20
10245;DHT22;5167;52.164;10.530;2023-04-03T04:13:39;1.90;24.80
10245;DHT22;5167;52.164;10.530;2023-04-03T04:16:04;1.80;24.10
10245;DHT22;5167;52.164;10.530;2023-04-03T04:18:30;1.90;24.30
10245;DHT22;5167;52.164;10.530;2023-04-03T04:20:56;1.90;24.50
10245;DHT22;5167;52.164;10.530;2023-04-03T04:23:21;2.00;24.30
10245;DHT22;5167;52.164;10.530;2023-04-03T04:25:48;2.10;24.40
10245;DHT22;5167;52.164;10.530;2023-04-03T04:28:14;2.10;24.30
10245;DHT22;5167;52.164;10.530;2023-04-03T04:30:40;2.10;24.30
10245;DHT22;5167;52.164;10.530;2023-04-03T04:33:06;2.20;23.80
10245;DHT22;5167;52.164;10.530;2023-04-03T04:35:32;2.20;23.70
10245;DHT22;5167;52.164;10.530;2023-04-03T04:37:58;2.20;24.20
10245;DHT22;5167;52.164;10.530;2023-04-03T04:40:23;2.20;23.60
10245;DHT22;5167;52.164;10.530;2023-04-03T04:42:49;2.40;23.60
10245;DHT22;5167;52.164;10.530;2023-04-03T04:45:14;2.30;23.60
10245;DHT22;5167;52.164;10.530;2023-04-03T04:47:40;2.20;23.00
10245;DHT22;5167;52.164;10.530;2023-04-03T04:50:06;2.20;23.40
10245;DHT22;5167;52.164;10.530;2023-04-03T04:52:32;2.30;23.30
10245;DHT22;5167;52.164;10.530;2023-04-03T04:54:57;2.20;23.30
10245;DHT22;5167;52.164;10.530;2023-04-03T04:57:23;2.20;23.10
10245;DHT22;5167;52.164;10.530;2023-04-03T04:59:48;2.20;23.20
10245;DHT22;5167;52.164;10.530;2023-04-03T05:02:14;2.20;23.30
10245;DHT22;5167;52.164;10.530;2023-04-03T05:04:39;2.20;23.40
10245;DHT22;5167;52.164;10.530;2023-04-03T05:07:05;2.20;23.30
10245;DHT22;5167;52.164;10.530;2023-04-03T05:09:30;2.20;23.40
10245;DHT22;5167;52.164;10.530;2023-04-03T05:11:56;2.20;23.10
10245;DHT22;5167;52.164;10.530;2023-04-03T05:14:22;2.20;23.50
10245;DHT22;5167;52.164;10.530;2023-04-03T05:16:48;2.20;23.10
10245;DHT22;5167;52.164;10.530;2023-04-03T05:19:14;2.20;22.60
10245;DHT22;5167;52.164;10.530;2023-04-03T05:21:40;2.20;23.10
10245;DHT22;5167;52.164;10.530;2023-04-03T05:24:05;2.20;23.20
10245;DHT22;5167;52.164;10.530;2023-04-03T05:26:34;2.20;22.80
10245;DHT22;5167;52.164;10.530;2023-04-03T05:29:00;2.20;23.50
10245;DHT22;5167;52.164;10.530;2023-04-03T05:31:25;2.20;23.60
10245;DHT22;5167;52.164;10.530;2023-04-03T05:33:51;2.20;23.90
10245;DHT22;5167;52.164;10.530;2023-04-03T05:36:16;2.40;23.70
10245;DHT22;5167;52.164;10.530;2023-04-03T05:38:42;2.30;23.60
10245;DHT22;5167;52.164;10.530;2023-04-03T05:41:08;2.40;23.10
10245;DHT22;5167;52.164;10.530;2023-04-03T05:43:33;2.40;23.50
10245;DHT22;5167;52.164;10.530;2023-04-03T05:46:00;2.40;23.70
10245;DHT22;5167;52.164;10.530;2023-04-03T05:48:25;2.50;24.00
10245;DHT22;5167;52.164;10.530;2023-04-03T05:50:51;2.60;24.30
10245;DHT22;5167;52.164;10.530;2023-04-03T05:53:27;2.80;24.30
10245;DHT22;5167;52.164;10.530;2023-04-03T05:55:53;2.90;23.70
10245;DHT22;5167;52.164;10.530;2023-04-03T05:58:19;2.90;23.10
10245;DHT22;5167;52.164;10.530;2023-04-03T06:00:45;3.00;22.70
10245;DHT22;5167;52.164;10.530;2023-04-03T06:03:11;3.10;22.30
10245;DHT22;5167;52.164;10.530;2023-04-03T06:05:36;3.10;22.20
10245;DHT22;5167;52.164;10.530;2023-04-03T06:08:02;3.20;21.50
10245;DHT22;5167;52.164;10.530;2023-04-03T06:10:28;3.20;21.60
10245;DHT22;5167;52.164;10.530;2023-04-03T06:12:54;3.20;21.20
10245;DHT22;5167;52.164;10.530;2023-04-03T06:15:20;3.20;20.70
10245;DHT22;5167;52.164;10.530;2023-04-03T06:17:45;3.20;20.60
10245;DHT22;5167;52.164;10.530;2023-04-03T06:20:11;3.30;20.90
10245;DHT22;5167;52.164;10.530;2023-04-03T06:22:37;3.20;20.50
10245;DHT22;5167;52.164;10.530;2023-04-03T06:25:03;3.30;21.20
10245;DHT22;5167;52.164;10.530;2023-04-03T06:27:29;3.40;21.10
10245;DHT22;5167;52.164;10.530;2023-04-03T06:29:54;3.40;21.10
10245;DHT22;5167;52.164;10.530;2023-04-03T06:32:20;3.60;20.90
10245;DHT22;5167;52.164;10.530;2023-04-03T06:34:46;3.70;21.00
10245;DHT22;5167;52.164;10.530;2023-04-03T06:37:20;3.90;20.20
10245;DHT22;5167;52.164;10.530;2023-04-03T06:39:46;4.10;18.60
10245;DHT22;5167;52.164;10.530;2023-04-03T06:42:12;4.10;18.00
10245;DHT22;5167;52.164;10.530;2023-04-03T06:44:38;4.30;17.70
10245;DHT22;5167;52.164;10.530;2023-04-03T06:47:04;4.30;17.10
10245;DHT22;5167;52.164;10.530;2023-04-03T06:49:29;4.40;16.20
10245;DHT22;5167;52.164;10.530;2023-04-03T06:51:55;4.40;15.90
10245;DHT22;5167;52.164;10.530;2023-04-03T06:54:22;4.40;15.50
10245;DHT22;5167;52.164;10.530;2023-04-03T06:56:47;4.40;15.30
10245;DHT22;5167;52.164;10.530;2023-04-03T06:59:14;4.50;15.70
10245;DHT22;5167;52.164;10.530;2023-04-03T07:01:40;4.50;16.30
10245;DHT22;5167;52.164;10.530;2023-04-03T07:04:06;4.80;16.20
10245;DHT22;5167;52.164;10.530;2023-04-03T07:06:31;4.80;15.50
10245;DHT22;5167;52.164;10.530;2023-04-03T07:08:58;5.00;14.60
10245;DHT22;5167;52.164;10.530;2023-04-03T07:11:24;5.20;13.00
10245;DHT22;5167;52.164;10.530;2023-04-03T07:13:50;5.30;13.20
10245;DHT22;5167;52.164;10.530;2023-04-03T07:16:16;5.50;12.80
10245;DHT22;5167;52.164;10.530;2023-04-03T07:18:41;5.70;12.50
10245;DHT22;5167;52.164;10.530;2023-04-03T07:21:07;5.90;11.90
10245;DHT22;5167;52.164;10.530;2023-04-03T07:23:33;6.10;10.40
10245;DHT22;5167;52.164;10.530;2023-04-03T07:25:59;6.20;9.50
10245;DHT22;5167;52.164;10.530;2023-04-03T07:28:24;6.30;9.10
10245;DHT22;5167;52.164;10.530;2023-04-03T07:30:52;6.50;9.10
10245;DHT22;5167;52.164;10.530;2023-04-03T07:33:20;6.60;7.10
10245;DHT22;5167;52.164;10.530;2023-04-03T07:35:46;6.60;6.10
10245;DHT22;5167;52.164;10.530;2023-04-03T07:38:12;6.70;5.30
10245;DHT22;5167;52.164;10.530;2023-04-03T07:40:40;6.80;5.80
10245;DHT22;5167;52.164;10.530;2023-04-03T07:43:14;7.00;5.80
10245;DHT22;5167;52.164;10.530;2023-04-03T07:45:41;7.10;5.00
10245;DHT22;5167;52.164;10.530;2023-04-03T07:48:07;7.30;5.00
10245;DHT22;5167;52.164;10.530;2023-04-03T07:50:35;7.40;5.00
10245;DHT22;5167;52.164;10.530;2023-04-03T07:53:04;7.30;5.00
10245;DHT22;5167;52.164;10.530;2023-04-03T07:55:31;7.50;5.00
10245;DHT22;5167;52.164;10.530;2023-04-03T07:57:57;7.40;5.00
10245;DHT22;5167;52.164;10.530;2023-04-03T08:00:23;7.40;5.00
10245;DHT22;5167;52.164;10.530;2023-04-03T08:02:51;7.50;5.00
10245;DHT22;5167;52.164;10.530;2023-04-03T08:05:20;7.50;5.00
10245;DHT22;5167;52.164;10.530;2023-04-03T08:07:56;7.60;5.00
10245;DHT22;5167;52.164;10.530;2023-04-03T08:10:27;7.50;5.00
10245;DHT22;5167;52.164;10.530;2023-04-03T08:13:04;7.50;5.00
10245;DHT22;5167;52.164;10.530;2023-04-03T08:15:33;7.40;5.00
10245;DHT22;5167;52.164;10.530;2023-04-03T08:17:59;7.40;5.00
10245;DHT22;5167;52.164;10.530;2023-04-03T08:20:26;7.50;5.00
10245;DHT22;5167;52.164;10.530;2023-04-03T08:22:52;7.60;5.00
10245;DHT22;5167;52.164;10.530;2023-04-03T08:25:17;7.70;5.00
10245;DHT22;5167;52.164;10.530;2023-04-03T08:27:43;7.70;5.00
10245;DHT22;5167;52.164;10.530;2023-04-03T08:30:12;7.70;5.00
10245;DHT22;5167;52.164;10.530;2023-04-03T08:32:38;7.80;5.00
10245;DHT22;5167;52.164;10.530;2023-04-03T08:35:04;7.90;5.00
10245;DHT22;5167;52.164;10.530;2023-04-03T08:37:37;8.00;5.00
10245;DHT22;5167;52.164;10.530;2023-04-03T08:40:12;8.10;5.00
10245;DHT22;5167;52.164;10.530;2023-04-03T08:45:46;8.20;5.00
10245;DHT22;5167;52.164;10.530;2023-04-03T08:48:19;8.30;5.00
10245;DHT22;5167;52.164;10.530;2023-04-03T08:50:50;8.60;5.00
10245;DHT22;5167;52.164;10.530;2023-04-03T08:53:29;8.80;5.00
10245;DHT22;5167;52.164;10.530;2023-04-03T08:55:58;8.90;5.00
10245;DHT22;5167;52.164;10.530;2023-04-03T08:58:28;8.90;5.00
10245;DHT22;5167;52.164;10.530;2023-04-03T09:01:01;8.90;5.00
10245;DHT22;5167;52.164;10.530;2023-04-03T09:03:39;8.80;5.00
10245;DHT22;5167;52.164;10.530;2023-04-03T09:06:16;9.00;5.00
10245;DHT22;5167;52.164;10.530;2023-04-03T09:09:09;8.80;5.00
10245;DHT22;5167;52.164;10.530;2023-04-03T09:11:53;8.80;5.00
10245;DHT22;5167;52.164;10.530;2023-04-03T09:14:46;8.90;5.00
10245;DHT22;5167;52.164;10.530;2023-04-03T09:20:38;8.90;5.00
10245;DHT22;5167;52.164;10.530;2023-04-03T09:25:54;8.90;5.00
10245;DHT22;5167;52.164;10.530;2023-04-03T09:28:28;9.10;5.00
10245;DHT22;5167;52.164;10.530;2023-04-03T09:31:05;9.20;5.00
10245;DHT22;5167;52.164;10.530;2023-04-03T09:33:43;9.20;5.00
10245;DHT22;5167;52.164;10.530;2023-04-03T09:36:14;9.20;5.00
10245;DHT22;5167;52.164;10.530;2023-04-03T09:39:07;9.00;5.00
10245;DHT22;5167;52.164;10.530;2023-04-03T09:41:39;9.00;5.00
10245;DHT22;5167;52.164;10.530;2023-04-03T09:44:25;8.90;5.00
10245;DHT22;5167;52.164;10.530;2023-04-03T09:46:56;8.70;5.00
10245;DHT22;5167;52.164;10.530;2023-04-03T09:49:25;8.70;5.00
10245;DHT22;5167;52.164;10.530;2023-04-03T09:51:52;8.90;5.00
10245;DHT22;5167;52.164;10.530;2023-04-03T09:54:26;9.00;5.00
10245;DHT22;5167;52.164;10.530;2023-04-03T09:57:17;8.90;5.00
10245;DHT22;5167;52.164;10.530;2023-04-03T10:00:31;8.80;5.00
10245;DHT22;5167;52.164;10.530;2023-04-03T10:03:01;8.70;5.00
10245;DHT22;5167;52.164;10.530;2023-04-03T10:05:40;8.70;5.00
10245;DHT22;5167;52.164;10.530;2023-04-03T10:08:20;8.90;5.00
10245;DHT22;5167;52.164;10.530;2023-04-03T10:11:14;9.20;5.00
10245;DHT22;5167;52.164;10.530;2023-04-03T10:13:53;9.30;5.00
10245;DHT22;5167;52.164;10.530;2023-04-03T10:16:27;9.60;5.00
10245;DHT22;5167;52.164;10.530;2023-04-03T10:21:57;10.00;5.00
10245;DHT22;5167;52.164;10.530;2023-04-03T10:27:48;10.40;5.00
10245;DHT22;5167;52.164;10.530;2023-04-03T10:33:42;10.20;5.00
10245;DHT22;5167;52.164;10.530;2023-04-03T10:36:27;9.90;5.00
10245;DHT22;5167;52.164;10.530;2023-04-03T10:44:57;9.00;5.00
10245;DHT22;5167;52.164;10.530;2023-04-03T10:47:31;8.90;5.00
10245;DHT22;5167;52.164;10.530;2023-04-03T11:02:01;8.10;5.00
10245;DHT22;5167;52.164;10.530;2023-04-03T11:04:36;8.00;5.00
10245;DHT22;5167;52.164;10.530;2023-04-03T11:07:24;8.00;5.00
10245;DHT22;5167;52.164;10.530;2023-04-03T11:09:57;8.00;5.00
10245;DHT22;5167;52.164;10.530;2023-04-03T11:12:41;8.10;5.00
10245;DHT22;5167;52.164;10.530;2023-04-03T11:15:19;8.30;5.00
10245;DHT22;5167;52.164;10.530;2023-04-03T11:17:51;8.50;5.00
10245;DHT22;5167;52.164;10.530;2023-04-03T11:20:30;8.50;5.00
10245;DHT22;5167;52.164;10.530;2023-04-03T11:23:25;8.50;5.00
10245;DHT22;5167;52.164;10.530;2023-04-03T11:25:59;8.40;5.00
10245;DHT22;5167;52.164;10.530;2023-04-03T11:28:29;8.40;5.00
10245;DHT22;5167;52.164;10.530;2023-04-03T11:31:38;8.40;5.00
10245;DHT22;5167;52.164;10.530;2023-04-03T11:34:36;8.40;5.00
10245;DHT22;5167;52.164;10.530;2023-04-03T11:37:38;8.60;5.00
10245;DHT22;5167;52.164;10.530;2023-04-03T11:40:29;8.80;5.00
10245;DHT22;5167;52.164;10.530;2023-04-03T11:45:49;9.40;5.00
10245;DHT22;5167;52.164;10.530;2023-04-03T11:51:30;9.60;5.00
10245;DHT22;5167;52.164;10.530;2023-04-03T11:57:06;9.80;5.00
10245;DHT22;5167;52.164;10.530;2023-04-03T12:00:01;9.90;5.00
10245;DHT22;5167;52.164;10.530;2023-04-03T12:02:40;9.90;5.00
10245;DHT22;5167;52.164;10.530;2023-04-03T12:05:30;9.90;5.00
10245;DHT22;5167;52.164;10.530;2023-04-03T12:08:27;9.90;5.00
10245;DHT22;5167;52.164;10.530;2023-04-03T12:11:19;9.90;5.00
10245;DHT22;5167;52.164;10.530;2023-04-03T12:16:55;9.80;5.00
10245;DHT22;5167;52.164;10.530;2023-04-03T12:19:32;9.80;5.00
10245;DHT22;5167;52.164;10.530;2023-04-03T12:22:10;9.70;5.00
10245;DHT22;5167;52.164;10.530;2023-04-03T12:24:44;9.60;5.00
10245;DHT22;5167;52.164;10.530;2023-04-03T12:27:36;9.50;5.00
10245;DHT22;5167;52.164;10.530;2023-04-03T12:30:14;9.40;5.00
10245;DHT22;5167;52.164;10.530;2023-04-03T12:32:47;9.40;5.00
10245;DHT22;5167;52.164;10.530;2023-04-03T12:35:55;9.40;5.00
10245;DHT22;5167;52.164;10.530;2023-04-03T12:38:48;9.30;5.00
10245;DHT22;5167;52.164;10.530;2023-04-03T12:46:53;9.20;5.00
10245;DHT22;5167;52.164;10.530;2023-04-03T12:49:40;8.90;5.00
10245;DHT22;5167;52.164;10.530;2023-04-03T12:52:27;8.80;5.00
10245;DHT22;5167;52.164;10.530;2023-04-03T12:55:00;8.60;5.00
10245;DHT22;5167;52.164;10.530;2023-04-03T12:57:31;8.50;5.00
10245;DHT22;5167;52.164;10.530;2023-04-03T13:00:00;8.50;5.00
10245;DHT22;5167;52.164;10.530;2023-04-03T13:02:51;8.60;5.00
10245;DHT22;5167;52.164;10.530;2023-04-03T13:05:21;8.80;5.00
10245;DHT22;5167;52.164;10.530;2023-04-03T13:08:01;8.90;5.00
10245;DHT22;5167;52.164;10.530;2023-04-03T13:10:31;8.90;5.00
10245;DHT22;5167;52.164;10.530;2023-04-03T13:13:09;9.10;5.00
10245;DHT22;5167;52.164;10.530;2023-04-03T13:15:48;9.10;5.00
10245;DHT22;5167;52.164;10.530;2023-04-03T13:18:37;9.10;5.00
10245;DHT22;5167;52.164;10.530;2023-04-03T13:21:06;9.10;5.00
10245;DHT22;5167;52.164;10.530;2023-04-03T13:23:38;9.20;5.00
10245;DHT22;5167;52.164;10.530;2023-04-03T13:26:08;9.10;5.00
10245;DHT22;5167;52.164;10.530;2023-04-03T13:28:37;9.20;5.00
10245;DHT22;5167;52.164;10.530;2023-04-03T13:34:06;9.10;5.00
10245;DHT22;5167;52.164;10.530;2023-04-03T13:36:41;9.10;5.00
10245;DHT22;5167;52.164;10.530;2023-04-03T13:41:49;9.00;5.00
10245;DHT22;5167;52.164;10.530;2023-04-03T13:44:29;8.90;5.00
10245;DHT22;5167;52.164;10.530;2023-04-03T13:47:21;8.80;5.00
10245;DHT22;5167;52.164;10.530;2023-04-03T13:50:16;8.80;5.00
10245;DHT22;5167;52.164;10.530;2023-04-03T13:53:02;8.90;5.00
10245;DHT22;5167;52.164;10.530;2023-04-03T13:56:06;8.90;5.00
10245;DHT22;5167;52.164;10.530;2023-04-03T13:58:36;9.00;5.00
10245;DHT22;5167;52.164;10.530;2023-04-03T14:01:17;9.00;5.00
10245;DHT22;5167;52.164;10.530;2023-04-03T14:03:57;9.00;5.00
10245;DHT22;5167;52.164;10.530;2023-04-03T14:06:23;9.00;5.00
10245;DHT22;5167;52.164;10.530;2023-04-03T14:08:50;9.10;5.00
10245;DHT22;5167;52.164;10.530;2023-04-03T14:11:21;8.90;5.00
10245;DHT22;5167;52.164;10.530;2023-04-03T14:13:53;8.80;5.00
10245;DHT22;5167;52.164;10.530;2023-04-03T14:16:25;8.90;5.00
10245;DHT22;5167;52.164;10.530;2023-04-03T14:18:54;8.90;5.00
10245;DHT22;5167;52.164;10.530;2023-04-03T14:21:38;8.90;5.00
10245;DHT22;5167;52.164;10.530;2023-04-03T14:24:08;9.00;5.00
10245;DHT22;5167;52.164;10.530;2023-04-03T14:26:36;9.10;5.00
10245;DHT22;5167;52.164;10.530;2023-04-03T14:29:05;9.10;5.00
10245;DHT22;5167;52.164;10.530;2023-04-03T14:31:34;9.00;5.00
10245;DHT22;5167;52.164;10.530;2023-04-03T14:34:02;8.80;5.00
10245;DHT22;5167;52.164;10.530;2023-04-03T14:36:32;8.80;5.00
10245;DHT22;5167;52.164;10.530;2023-04-03T14:39:03;8.80;5.00
10245;DHT22;5167;52.164;10.530;2023-04-03T14:42:02;8.80;5.00
10245;DHT22;5167;52.164;10.530;2023-04-03T14:44:33;8.80;5.00
10245;DHT22;5167;52.164;10.530;2023-04-03T14:47:04;8.70;5.00
10245;DHT22;5167;52.164;10.530;2023-04-03T14:49:32;8.80;5.00
10245;DHT22;5167;52.164;10.530;2023-04-03T14:52:05;8.70;5.00
10245;DHT22;5167;52.164;10.530;2023-04-03T14:54:40;8.60;5.00
10245;DHT22;5167;52.164;10.530;2023-04-03T14:57:12;8.70;5.00
10245;DHT22;5167;52.164;10.530;2023-04-03T14:59:43;8.90;5.00
10245;DHT22;5167;52.164;10.530;2023-04-03T15:02:29;8.80;5.00
10245;DHT22;5167;52.164;10.530;2023-04-03T15:05:06;8.90;5.00
10245;DHT22;5167;52.164;10.530;2023-04-03T15:07:44;8.90;5.00
10245;DHT22;5167;52.164;10.530;2023-04-03T15:10:30;8.90;5.00
10245;DHT22;5167;52.164;10.530;2023-04-03T15:13:04;8.90;5.00
10245;DHT22;5167;52.164;10.530;2023-04-03T15:15:35;8.90;5.00
10245;DHT22;5167;52.164;10.530;2023-04-03T15:18:05;8.90;5.00
10245;DHT22;5167;52.164;10.530;2023-04-03T15:20:33;8.80;5.00
10245;DHT22;5167;52.164;10.530;2023-04-03T15:23:12;8.80;5.00
10245;DHT22;5167;52.164;10.530;2023-04-03T15:25:44;8.80;5.00
10245;DHT22;5167;52.164;10.530;2023-04-03T15:28:37;8.60;5.00
10245;DHT22;5167;52.164;10.530;2023-04-03T15:31:03;8.60;5.00
10245;DHT22;5167;52.164;10.530;2023-04-03T15:33:35;8.60;5.00
10245;DHT22;5167;52.164;10.530;2023-04-03T15:36:09;8.60;5.00
10245;DHT22;5167;52.164;10.530;2023-04-03T15:38:41;8.70;5.00
10245;DHT22;5167;52.164;10.530;2023-04-03T15:41:07;8.70;5.00
10245;DHT22;5167;52.164;10.530;2023-04-03T15:43:37;8.70;5.00
10245;DHT22;5167;52.164;10.530;2023-04-03T15:46:11;8.70;5.00
10245;DHT22;5167;52.164;10.530;2023-04-03T15:48:37;8.70;5.00
10245;DHT22;5167;52.164;10.530;2023-04-03T15:51:06;8.60;5.00
10245;DHT22;5167;52.164;10.530;2023-04-03T15:53:37;8.60;5.00
10245;DHT22;5167;52.164;10.530;2023-04-03T15:56:13;8.60;5.00
10245;DHT22;5167;52.164;10.530;2023-04-03T15:58:43;8.70;5.00
10245;DHT22;5167;52.164;10.530;2023-04-03T16:01:11;8.70;5.00
10245;DHT22;5167;52.164;10.530;2023-04-03T16:03:43;8.60;5.00
10245;DHT22;5167;52.164;10.530;2023-04-03T16:06:16;8.60;5.00
10245;DHT22;5167;52.164;10.530;2023-04-03T16:08:45;8.60;5.00
10245;DHT22;5167;52.164;10.530;2023-04-03T16:11:11;8.60;5.00
10245;DHT22;5167;52.164;10.530;2023-04-03T16:13:37;8.70;5.00
10245;DHT22;5167;52.164;10.530;2023-04-03T16:16:09;8.70;5.00
10245;DHT22;5167;52.164;10.530;2023-04-03T16:18:39;8.70;5.00
10245;DHT22;5167;52.164;10.530;2023-04-03T16:21:16;8.60;5.00
10245;DHT22;5167;52.164;10.530;2023-04-03T16:24:09;8.50;5.00
10245;DHT22;5167;52.164;10.530;2023-04-03T16:26:35;8.50;5.00
10245;DHT22;5167;52.164;10.530;2023-04-03T16:29:03;8.50;5.00
10245;DHT22;5167;52.164;10.530;2023-04-03T16:31:45;8.40;5.00
10245;DHT22;5167;52.164;10.530;2023-04-03T16:34:16;8.40;5.00
10245;DHT22;5167;52.164;10.530;2023-04-03T16:36:58;8.40;5.00
10245;DHT22;5167;52.164;10.530;2023-04-03T16:39:39;8.50;5.00
10245;DHT22;5167;52.164;10.530;2023-04-03T16:42:12;8.50;5.00
10245;DHT22;5167;52.164;10.530;2023-04-03T16:44:40;8.50;5.00
10245;DHT22;5167;52.164;10.530;2023-04-03T16:47:09;8.40;5.00
10245;DHT22;5167;52.164;10.530;2023-04-03T16:49:36;8.40;5.00
10245;DHT22;5167;52.164;10.530;2023-04-03T16:52:05;8.20;5.00
10245;DHT22;5167;52.164;10.530;2023-04-03T16:54:36;8.30;5.00
10245;DHT22;5167;52.164;10.530;2023-04-03T16:57:01;8.20;5.00
10245;DHT22;5167;52.164;10.530;2023-04-03T16:59:35;8.20;5.00
10245;DHT22;5167;52.164;10.530;2023-04-03T17:02:00;8.20;5.00
10245;DHT22;5167;52.164;10.530;2023-04-03T17:04:26;8.20;5.00
10245;DHT22;5167;52.164;10.530;2023-04-03T17:06:52;8.20;5.00
10245;DHT22;5167;52.164;10.530;2023-04-03T17:09:18;8.20;5.00
10245;DHT22;5167;52.164;10.530;2023-04-03T17:11:46;8.20;5.00
10245;DHT22;5167;52.164;10.530;2023-04-03T17:14:13;8.20;5.00
10245;DHT22;5167;52.164;10.530;2023-04-03T17:16:41;8.10;5.00
10245;DHT22;5167;52.164;10.530;2023-04-03T17:19:09;8.10;5.00
10245;DHT22;5167;52.164;10.530;2023-04-03T17:21:39;8.10;5.00
10245;DHT22;5167;52.164;10.530;2023-04-03T17:24:20;8.10;5.00